createdAt,value
2023-05-13T00:01:36.666Z,97501.94
2023-05-13T00:05:39.561Z,97498.88
2023-05-13T00:09:41.125Z,97495.66
2023-05-13T00:13:42.648Z,97497.25
2023-05-13T00:17:44.180Z,97498.75
2023-05-13T00:21:47.212Z,97497.63
2023-05-13T00:25:48.751Z,97499.47
2023-05-13T00:29:50.275Z,97500.00
2023-05-13T00:33:51.763Z,97496.66
2023-05-13T00:37:54.586Z,97501.13
2023-05-13T00:41:56.169Z,97500.00
2023-05-13T00:45:58.668Z,97505.22
2023-05-13T00:50:00.212Z,97508.03
2023-05-13T00:54:04.263Z,97503.47
2023-05-13T00:58:05.747Z,97504.78
2023-05-13T01:02:14.128Z,97498.47
2023-05-13T01:06:21.202Z,97506.44
2023-05-13T01:10:34.503Z,97507.94
2023-05-13T01:14:40.030Z,97513.13
2023-05-13T01:18:46.022Z,97510.38
2023-05-13T01:22:48.895Z,97504.56
2023-05-13T01:26:50.638Z,97503.50
2023-05-13T01:30:52.501Z,97509.78
2023-05-13T01:34:55.206Z,97503.31
2023-05-13T01:38:59.658Z,97507.13
2023-05-13T01:43:01.247Z,97507.66
2023-05-13T01:47:03.066Z,97507.03
2023-05-13T01:51:04.831Z,97506.91
2023-05-13T01:55:08.478Z,97510.25
2023-05-13T01:59:10.507Z,97500.88
2023-05-13T02:03:12.111Z,97513.50
2023-05-13T02:07:13.654Z,97509.63
2023-05-13T02:11:16.526Z,97509.63
2023-05-13T02:15:18.109Z,97509.06
2023-05-13T02:19:19.615Z,97510.19
2023-05-13T02:23:21.112Z,97508.22
2023-05-13T02:27:23.951Z,97507.66
2023-05-13T02:31:25.566Z,97504.38
2023-05-13T02:35:27.303Z,97508.19
2023-05-13T02:39:28.782Z,97507.06
2023-05-13T02:43:31.626Z,97511.50
2023-05-13T02:47:33.129Z,97506.50
2023-05-13T02:51:34.647Z,97503.47
2023-05-13T02:55:36.216Z,97502.06
2023-05-13T02:59:39.042Z,97507.50
2023-05-13T03:03:40.657Z,97505.81
2023-05-13T03:07:42.291Z,97514.13
2023-05-13T03:11:43.818Z,97508.25
2023-05-13T03:15:46.700Z,97515.69
2023-05-13T03:19:48.226Z,97504.56
2023-05-13T03:23:49.732Z,97513.22
2023-05-13T03:27:51.252Z,97510.94
2023-05-13T03:31:54.357Z,97511.84
2023-05-13T03:35:55.744Z,97516.78
2023-05-13T03:39:57.422Z,97521.16
2023-05-13T03:43:58.923Z,97517.28
2023-05-13T03:48:01.765Z,97518.59
2023-05-13T03:52:03.583Z,97519.72
2023-05-13T03:56:05.683Z,97519.88
2023-05-13T04:00:08.709Z,97520.97
2023-05-13T04:04:11.550Z,97526.81
2023-05-13T04:08:13.128Z,97525.97
2023-05-13T04:12:14.677Z,97530.91
2023-05-13T04:16:16.291Z,97532.84
2023-05-13T04:20:19.612Z,97531.72
2023-05-13T04:24:21.426Z,97532.47
2023-05-13T04:28:22.956Z,97534.66
2023-05-13T04:36:35.005Z,97532.66
2023-05-13T04:40:36.509Z,97530.88
2023-05-13T04:44:38.044Z,97545.19
2023-05-13T04:48:39.582Z,97543.19
2023-05-13T04:52:42.885Z,97548.78
2023-05-13T04:56:44.435Z,97548.34
2023-05-13T05:00:45.968Z,97548.50
2023-05-13T05:04:47.487Z,97550.44
2023-05-13T05:08:50.364Z,97548.44
2023-05-13T05:12:51.880Z,97553.75
2023-05-13T05:16:53.452Z,97554.50
2023-05-13T05:20:55.006Z,97559.19
2023-05-13T05:24:57.886Z,97554.13
2023-05-13T05:28:59.480Z,97554.53
2023-05-13T05:33:01.072Z,97569.28
2023-05-13T05:37:02.640Z,97575.19
2023-05-13T05:41:05.686Z,97564.94
2023-05-13T05:45:08.228Z,97561.19
2023-05-13T05:49:09.813Z,97567.13
2023-05-13T05:53:11.328Z,97570.34
2023-05-13T05:57:14.204Z,97564.88
2023-05-13T06:01:15.713Z,97572.28
2023-05-13T06:05:17.441Z,97564.19
2023-05-13T06:09:19.009Z,97562.78
2023-05-13T06:13:21.895Z,97563.44
2023-05-13T06:17:23.409Z,97567.19
2023-05-13T06:21:24.943Z,97570.09
2023-05-13T06:25:26.663Z,97571.91
2023-05-13T06:29:29.598Z,97564.78
2023-05-13T06:33:31.214Z,97575.22
2023-05-13T06:37:32.806Z,97578.94
2023-05-13T06:41:34.707Z,97574.53
2023-05-13T06:45:37.578Z,97575.25
2023-05-13T06:49:39.098Z,97584.69
2023-05-13T06:53:40.616Z,97586.41
2023-05-13T06:57:43.523Z,97587.72
2023-05-13T07:01:46.599Z,97592.44
2023-05-13T07:05:48.124Z,97595.41
2023-05-13T07:09:49.690Z,97589.50
2023-05-13T07:13:51.234Z,97590.09
2023-05-13T07:17:54.209Z,97603.53
2023-05-13T07:21:55.804Z,97590.69
2023-05-13T07:25:57.330Z,97589.13
2023-05-13T07:29:58.854Z,97594.91
2023-05-13T07:34:01.752Z,97589.53
2023-05-13T07:38:03.450Z,97584.75
2023-05-13T07:42:05.850Z,97593.09
2023-05-13T07:46:07.457Z,97593.47
2023-05-13T07:50:10.476Z,97600.66
2023-05-13T07:54:11.992Z,97593.59
2023-05-13T07:58:13.586Z,97600.88
2023-05-13T08:02:15.150Z,97606.56
2023-05-13T08:06:18.030Z,97603.00
2023-05-13T08:10:19.553Z,97605.91
2023-05-13T08:14:21.279Z,97603.22
2023-05-13T08:18:22.857Z,97605.03
2023-05-13T08:22:26.522Z,97606.91
2023-05-13T08:26:28.070Z,97603.78
2023-05-13T08:30:29.622Z,97605.72
2023-05-13T08:34:31.196Z,97594.84
2023-05-13T08:38:34.599Z,97605.13
2023-05-13T08:42:38.732Z,97604.00
2023-05-13T08:46:44.060Z,97619.69
2023-05-13T08:50:46.167Z,97602.50
2023-05-13T08:54:49.349Z,97603.50
2023-05-13T08:58:50.756Z,97604.88
2023-05-13T09:02:52.354Z,97616.19
2023-05-13T09:06:53.922Z,97615.41
2023-05-13T09:10:57.491Z,97613.31
2023-05-13T09:14:59.026Z,97609.06
2023-05-13T09:19:03.511Z,97604.97
2023-05-13T09:23:06.854Z,97605.56
2023-05-13T09:27:09.590Z,97609.16
2023-05-13T09:31:11.420Z,97611.75
2023-05-13T09:35:15.296Z,97617.91
2023-05-13T09:39:16.850Z,97611.53
2023-05-13T09:43:21.501Z,97609.72
2023-05-13T09:47:24.416Z,97613.19
2023-05-13T09:51:26.424Z,97614.66
2023-05-13T09:55:29.002Z,97614.16
2023-05-13T09:59:33.131Z,97618.25
2023-05-13T10:03:34.871Z,97610.38
2023-05-13T10:07:38.132Z,97612.81
2023-05-13T10:11:43.953Z,97613.53
2023-05-13T10:15:50.537Z,97614.19
2023-05-13T10:19:53.742Z,97613.22
2023-05-13T10:23:55.922Z,97615.19
2023-05-13T10:27:57.557Z,97616.53
2023-05-13T10:32:01.812Z,97615.03
2023-05-13T10:36:16.332Z,97611.63
2023-05-13T10:40:30.975Z,97616.16
2023-05-13T10:44:33.474Z,97618.09
2023-05-13T10:48:40.802Z,97604.97
2023-05-13T10:52:43.508Z,97608.97
2023-05-13T10:56:45.085Z,97596.69
2023-05-13T11:00:46.609Z,97604.97
2023-05-13T11:04:59.463Z,97602.44
2023-05-13T11:09:01.073Z,97602.34
2023-05-13T11:13:21.406Z,97608.25
2023-05-13T11:17:23.034Z,97605.16
2023-05-13T11:21:33.339Z,97595.47
2023-05-13T11:25:34.882Z,97599.38
2023-05-13T11:29:37.018Z,97589.31
2023-05-13T11:34:05.723Z,97599.97
2023-05-13T11:38:09.015Z,97579.19
2023-05-13T11:42:11.333Z,97585.19
2023-05-13T11:46:20.782Z,97584.28
2023-05-13T11:50:26.304Z,97578.13
2023-05-13T11:54:29.685Z,97579.66
2023-05-13T11:58:31.184Z,97578.63
2023-05-13T12:02:34.573Z,97584.59
2023-05-13T12:06:43.467Z,97581.84
2023-05-13T12:10:46.341Z,97589.09
2023-05-13T12:14:48.622Z,97589.59
2023-05-13T12:18:55.946Z,97595.13
2023-05-13T12:23:00.084Z,97594.94
2023-05-13T12:27:08.663Z,97595.72
2023-05-13T12:31:16.605Z,97606.34
2023-05-13T12:35:18.153Z,97589.00
2023-05-13T12:39:20.628Z,97596.06
2023-05-13T12:43:23.571Z,97590.56
2023-05-13T12:47:25.132Z,97591.16
2023-05-13T12:51:27.442Z,97592.25
2023-05-13T12:55:29.054Z,97591.00
2023-05-13T12:59:31.977Z,97585.09
2023-05-13T13:03:33.576Z,97590.31
2023-05-13T13:07:35.137Z,97598.28
2023-05-13T13:11:36.662Z,97591.69
2023-05-13T13:15:39.530Z,97601.41
2023-05-13T13:19:41.153Z,97605.59
2023-05-13T13:23:42.673Z,97595.69
2023-05-13T13:27:44.203Z,97592.75
2023-05-13T13:31:47.141Z,97582.72
2023-05-13T13:35:49.481Z,97582.28
2023-05-13T13:39:51.057Z,97593.97
2023-05-13T13:43:52.602Z,97581.34
2023-05-13T13:47:55.621Z,97586.00
2023-05-13T13:51:57.100Z,97590.91
2023-05-13T13:55:58.650Z,97579.72
2023-05-13T14:00:00.181Z,97586.28
2023-05-13T14:04:13.992Z,97584.00
2023-05-13T14:08:15.534Z,97575.16
2023-05-13T14:12:17.357Z,97579.53
2023-05-13T14:16:18.960Z,97567.03
2023-05-13T14:20:22.257Z,97571.31
2023-05-13T14:24:24.282Z,97573.06
2023-05-13T14:28:25.833Z,97569.19
2023-05-13T14:32:27.355Z,97573.78
2023-05-13T14:36:30.699Z,97567.00
2023-05-13T14:40:32.229Z,97570.03
2023-05-13T14:44:33.748Z,97562.94
2023-05-13T14:48:35.276Z,97566.88
2023-05-13T14:52:38.145Z,97574.03
2023-05-13T14:56:39.685Z,97568.22
2023-05-13T15:00:41.247Z,97570.78
2023-05-13T15:04:42.855Z,97566.09
2023-05-13T15:08:45.754Z,97567.25
2023-05-13T15:12:47.280Z,97555.38
2023-05-13T15:16:48.858Z,97560.78
2023-05-13T15:20:50.440Z,97549.34
2023-05-13T15:24:54.399Z,97551.88
2023-05-13T15:28:55.958Z,97556.47
2023-05-13T15:32:57.567Z,97549.03
2023-05-13T15:36:59.096Z,97534.59
2023-05-13T15:41:04.048Z,97531.84
2023-05-13T15:45:06.896Z,97534.91
2023-05-13T15:49:08.421Z,97535.69
2023-05-13T15:53:10.031Z,97525.56
2023-05-13T15:57:12.911Z,97534.19
2023-05-13T16:01:14.461Z,97530.50
2023-05-13T16:05:16.017Z,97530.75
2023-05-13T16:09:17.540Z,97532.22
2023-05-13T16:13:21.148Z,97529.41
2023-05-13T16:17:22.702Z,97524.56
2023-05-13T16:21:24.219Z,97525.38
2023-05-13T16:25:26.005Z,97521.94
2023-05-13T16:29:28.878Z,97518.91
2023-05-13T16:33:30.437Z,97516.56
2023-05-13T16:37:31.977Z,97511.34
2023-05-13T16:41:33.665Z,97507.66
2023-05-13T16:45:36.630Z,97507.41
2023-05-13T16:49:38.288Z,97511.22
2023-05-13T16:53:39.858Z,97513.38
2023-05-13T16:57:41.389Z,97511.56
2023-05-13T17:01:44.292Z,97515.13
2023-05-13T17:05:45.817Z,97509.09
2023-05-13T17:09:47.349Z,97504.97
2023-05-13T17:13:48.877Z,97507.31
2023-05-13T17:17:51.954Z,97513.00
2023-05-13T17:21:53.503Z,97512.19
2023-05-13T17:25:55.025Z,97521.88
2023-05-13T17:29:56.600Z,97519.44
2023-05-13T17:33:59.485Z,97523.50
2023-05-13T17:38:01.019Z,97523.50
2023-05-13T17:42:02.537Z,97522.72
2023-05-13T17:46:04.412Z,97525.97
2023-05-13T17:50:08.049Z,97521.72
2023-05-13T17:54:09.593Z,97527.25
2023-05-13T17:58:11.115Z,97527.88
2023-05-13T18:02:12.829Z,97536.44
2023-05-13T18:06:15.932Z,97540.78
2023-05-13T18:10:17.343Z,97536.66
2023-05-13T18:14:18.899Z,97541.66
2023-05-13T18:18:20.410Z,97548.13
2023-05-13T18:22:23.383Z,97547.94
2023-05-13T18:26:24.969Z,97542.78
2023-05-13T18:30:26.537Z,97539.56
2023-05-13T18:34:28.136Z,97549.41
2023-05-13T18:38:31.013Z,97547.09
2023-05-13T18:42:33.066Z,97544.75
2023-05-13T18:46:34.665Z,97555.41
2023-05-13T18:50:36.221Z,97552.88
2023-05-13T18:54:39.095Z,97561.59
2023-05-13T18:58:40.641Z,97565.34
2023-05-13T19:02:42.351Z,97568.13
2023-05-13T19:06:44.127Z,97573.03
2023-05-13T19:10:47.012Z,97574.47
2023-05-13T19:14:48.543Z,97572.78
2023-05-13T19:18:50.326Z,97581.00
2023-05-13T19:22:51.969Z,97583.88
2023-05-13T19:26:54.982Z,97588.19
2023-05-13T19:30:56.820Z,97591.69
2023-05-13T19:34:58.353Z,97597.13
2023-05-13T19:38:59.907Z,97595.94
2023-05-13T19:43:02.782Z,97589.34
2023-05-13T19:47:04.501Z,97593.25
2023-05-13T19:51:06.072Z,97593.25
2023-05-13T19:55:08.649Z,97587.19
2023-05-13T19:59:11.590Z,97590.16
2023-05-13T20:03:13.648Z,97595.72
2023-05-13T20:07:15.320Z,97593.06
2023-05-13T20:11:16.910Z,97587.00
2023-05-13T20:15:19.899Z,97596.13
2023-05-13T20:19:21.483Z,97588.25
2023-05-13T20:23:23.146Z,97589.59
2023-05-13T20:27:24.738Z,97594.41
2023-05-13T20:31:27.706Z,97599.94
2023-05-13T20:35:29.254Z,97602.72
2023-05-13T20:39:30.848Z,97600.53
2023-05-13T20:43:34.181Z,97598.81
2023-05-13T20:47:37.166Z,97591.41
2023-05-13T20:51:38.989Z,97599.00
2023-05-13T20:55:40.579Z,97599.00
2023-05-13T20:59:42.095Z,97596.38
2023-05-13T21:03:44.996Z,97594.19
2023-05-13T21:07:46.537Z,97586.50
2023-05-13T21:11:48.102Z,97589.28
2023-05-13T21:15:49.693Z,97590.41
2023-05-13T21:19:52.969Z,97594.72
2023-05-13T21:23:54.320Z,97591.56
2023-05-13T21:27:55.842Z,97582.22
2023-05-13T21:31:57.673Z,97580.66
2023-05-13T21:36:00.638Z,97578.22
2023-05-13T21:40:02.317Z,97573.00
2023-05-13T21:44:03.980Z,97572.78
2023-05-13T21:48:06.526Z,97576.78
2023-05-13T21:52:09.563Z,97565.41
2023-05-13T21:56:11.100Z,97572.06
2023-05-13T22:00:13.659Z,97571.13
2023-05-13T22:04:15.159Z,97568.44
2023-05-13T22:08:18.074Z,97567.28
2023-05-13T22:12:19.601Z,97571.28
2023-05-13T22:16:21.232Z,97566.56
2023-05-13T22:20:23.676Z,97559.06
2023-05-13T22:24:26.801Z,97556.69
2023-05-13T22:28:28.429Z,97556.84
2023-05-13T22:32:30.003Z,97551.47
2023-05-13T22:36:31.614Z,97546.94
2023-05-13T22:40:34.539Z,97552.34
2023-05-13T22:44:36.239Z,97555.56
2023-05-13T22:48:37.855Z,97554.94
2023-05-13T22:52:39.513Z,97563.09
2023-05-13T22:56:42.483Z,97554.94
2023-05-13T23:00:44.180Z,97551.22
2023-05-13T23:04:45.725Z,97547.56
2023-05-13T23:08:47.358Z,97548.06
2023-05-13T23:12:50.391Z,97551.31
2023-05-13T23:16:51.902Z,97535.63
2023-05-13T23:20:54.369Z,97540.28
2023-05-13T23:24:55.901Z,97534.44
2023-05-13T23:28:58.766Z,97539.41
2023-05-13T23:33:00.338Z,97537.28
2023-05-13T23:37:01.878Z,97534.13
2023-05-13T23:41:03.428Z,97531.44
2023-05-13T23:45:07.590Z,97527.84
2023-05-13T23:49:09.106Z,97530.19
2023-05-13T23:53:10.630Z,97524.56
2023-05-13T23:57:12.199Z,97525.13
